sensor_id;sensor_type;location;lat;lon;timestamp;pressure;altitude;pressure_sealevel;temperature;humidity
37238;BME280;23129;49.662;8.448;2022-10-24T00:01:46;100191.53;;;16.00;100.00
37238;BME280;23129;49.662;8.448;2022-10-24T00:04:14;100191.53;;;16.00;100.00
37238;BME280;23129;49.662;8.448;2022-10-24T00:06:43;100192.56;;;15.97;100.00
37238;BME280;23129;49.662;8.448;2022-10-24T00:09:12;100204.09;;;15.96;100.00
37238;BME280;23129;49.662;8.448;2022-10-24T00:11:41;100193.59;;;15.94;100.00
37238;BME280;23129;49.662;8.448;2022-10-24T00:14:11;100194.44;;;15.95;100.00
37238;BME280;23129;49.662;8.448;2022-10-24T00:16:40;100196.09;;;15.97;100.00
37238;BME280;23129;49.662;8.448;2022-10-24T00:19:08;100191.53;;;16.00;100.00
37238;BME280;23129;49.662;8.448;2022-10-24T00:21:37;100183.59;;;16.00;100.00
37238;BME280;23129;49.662;8.448;2022-10-24T00:24:05;100195.81;;;16.02;100.00
37238;BME280;23129;49.662;8.448;2022-10-24T00:26:34;100186.09;;;16.03;100.00
37238;BME280;23129;49.662;8.448;2022-10-24T00:29:03;100198.41;;;16.04;100.00
37238;BME280;23129;49.662;8.448;2022-10-24T00:31:33;100193.09;;;16.04;100.00
37238;BME280;23129;49.662;8.448;2022-10-24T00:34:03;100190.47;;;16.04;100.00
37238;BME280;23129;49.662;8.448;2022-10-24T00:36:32;100184.38;;;16.02;100.00
37238;BME280;23129;49.662;8.448;2022-10-24T00:39:01;100187.97;;;16.01;100.00
37238;BME280;23129;49.662;8.448;2022-10-24T00:41:32;100190.69;;;15.99;100.00
37238;BME280;23129;49.662;8.448;2022-10-24T00:44:30;100190.84;;;15.96;100.00
37238;BME280;23129;49.662;8.448;2022-10-24T00:47:04;100183.88;;;15.95;100.00
37238;BME280;23129;49.662;8.448;2022-10-24T00:49:42;100182.16;;;15.94;100.00
37238;BME280;23129;49.662;8.448;2022-10-24T00:52:13;100177.72;;;15.94;100.00
37238;BME280;23129;49.662;8.448;2022-10-24T00:54:42;100179.44;;;15.95;100.00
37238;BME280;23129;49.662;8.448;2022-10-24T00:57:18;100181.22;;;15.95;100.00
37238;BME280;23129;49.662;8.448;2022-10-24T00:59:53;100188.31;;;15.94;100.00
37238;BME280;23129;49.662;8.448;2022-10-24T01:02:24;100175.09;;;15.94;100.00
37238;BME280;23129;49.662;8.448;2022-10-24T01:04:52;100183.03;;;15.94;100.00
37238;BME280;23129;49.662;8.448;2022-10-24T01:07:34;100183.03;;;15.94;100.00
37238;BME280;23129;49.662;8.448;2022-10-24T01:10:29;100184.88;;;15.92;100.00
37238;BME280;23129;49.662;8.448;2022-10-24T01:13:10;100176.94;;;15.92;100.00
37238;BME280;23129;49.662;8.448;2022-10-24T01:15:48;100173.34;;;15.93;100.00
37238;BME280;23129;49.662;8.448;2022-10-24T01:18:24;100163.72;;;15.92;100.00
37238;BME280;23129;49.662;8.448;2022-10-24T01:21:10;100161.88;;;15.94;100.00
37238;BME280;23129;49.662;8.448;2022-10-24T01:24:05;100164.56;;;15.93;100.00
37238;BME280;23129;49.662;8.448;2022-10-24T01:27:08;100163.56;;;15.95;100.00
37238;BME280;23129;49.662;8.448;2022-10-24T01:30:01;100163.38;;;15.98;100.00
37238;BME280;23129;49.662;8.448;2022-10-24T01:32:36;100153.66;;;15.99;100.00
37238;BME280;23129;49.662;8.448;2022-10-24T01:35:27;100157.16;;;16.00;100.00
37238;BME280;23129;49.662;8.448;2022-10-24T01:38:11;100155.28;;;16.02;100.00
37238;BME280;23129;49.662;8.448;2022-10-24T01:40:47;100145.66;;;16.01;100.00
37238;BME280;23129;49.662;8.448;2022-10-24T01:43:24;100140.34;;;16.01;100.00
37238;BME280;23129;49.662;8.448;2022-10-24T01:46:00;100143.00;;;16.01;100.00
37238;BME280;23129;49.662;8.448;2022-10-24T01:48:32;100143.00;;;16.01;100.00
37238;BME280;23129;49.662;8.448;2022-10-24T01:51:04;100136.94;;;15.98;100.00
37238;BME280;23129;49.662;8.448;2022-10-24T01:53:35;100136.94;;;15.98;100.00
37238;BME280;23129;49.662;8.448;2022-10-24T01:56:05;100145.81;;;15.97;100.00
37238;BME280;23129;49.662;8.448;2022-10-24T01:58:33;100137.09;;;15.95;100.00
37238;BME280;23129;49.662;8.448;2022-10-24T02:01:09;100130.13;;;15.94;100.00
37238;BME280;23129;49.662;8.448;2022-10-24T02:03:42;100135.41;;;15.94;100.00
37238;BME280;23129;49.662;8.448;2022-10-24T02:06:15;100146.28;;;15.88;100.00
37238;BME280;23129;49.662;8.448;2022-10-24T02:08:50;100141.78;;;15.90;100.00
37238;BME280;23129;49.662;8.448;2022-10-24T02:11:19;100151.75;;;15.85;100.00
37238;BME280;23129;49.662;8.448;2022-10-24T02:13:52;100154.22;;;15.88;100.00
37238;BME280;23129;49.662;8.448;2022-10-24T02:16:23;100153.56;;;15.85;100.00
37238;BME280;23129;49.662;8.448;2022-10-24T02:18:54;100141.34;;;15.82;100.00
37238;BME280;23129;49.662;8.448;2022-10-24T02:21:28;100146.81;;;15.79;100.00
37238;BME280;23129;49.662;8.448;2022-10-24T02:24:04;100151.41;;;15.75;100.00
37238;BME280;23129;49.662;8.448;2022-10-24T02:26:38;100149.78;;;15.73;100.00
37238;BME280;23129;49.662;8.448;2022-10-24T02:29:13;100149.03;;;15.71;100.00
37238;BME280;23129;49.662;8.448;2022-10-24T02:31:51;100154.38;;;15.69;100.00
37238;BME280;23129;49.662;8.448;2022-10-24T02:34:21;100162.41;;;15.68;100.00
37238;BME280;23129;49.662;8.448;2022-10-24T02:36:54;100152.72;;;15.67;100.00
37238;BME280;23129;49.662;8.448;2022-10-24T02:39:25;100157.25;;;15.65;100.00
37238;BME280;23129;49.662;8.448;2022-10-24T02:41:55;100167.06;;;15.63;100.00
37238;BME280;23129;49.662;8.448;2022-10-24T02:44:25;100151.19;;;15.63;100.00
37238;BME280;23129;49.662;8.448;2022-10-24T02:46:59;100145.97;;;15.61;100.00
37238;BME280;23129;49.662;8.448;2022-10-24T02:49:28;100151.34;;;15.60;100.00
37238;BME280;23129;49.662;8.448;2022-10-24T02:51:57;100143.59;;;15.57;100.00
37238;BME280;23129;49.662;8.448;2022-10-24T02:54:26;100154.22;;;15.55;100.00
37238;BME280;23129;49.662;8.448;2022-10-24T02:57:00;100144.69;;;15.52;100.00
37238;BME280;23129;49.662;8.448;2022-10-24T02:59:29;100137.84;;;15.48;100.00
37238;BME280;23129;49.662;8.448;2022-10-24T03:01:59;100137.06;;;15.46;100.00
37238;BME280;23129;49.662;8.448;2022-10-24T03:04:28;100136.47;;;15.41;100.00
37238;BME280;23129;49.662;8.448;2022-10-24T03:06:56;100129.47;;;15.40;100.00
37238;BME280;23129;49.662;8.448;2022-10-24T03:09:25;100126.22;;;15.35;100.00
37238;BME280;23129;49.662;8.448;2022-10-24T03:11:53;100121.09;;;15.32;100.00
37238;BME280;23129;49.662;8.448;2022-10-24T03:14:21;100136.19;;;15.30;100.00
37238;BME280;23129;49.662;8.448;2022-10-24T03:16:50;100155.63;;;15.29;100.00
37238;BME280;23129;49.662;8.448;2022-10-24T03:19:20;100155.84;;;15.24;100.00
37238;BME280;23129;49.662;8.448;2022-10-24T03:21:48;100155.16;;;15.21;100.00
37238;BME280;23129;49.662;8.448;2022-10-24T03:24:17;100170.31;;;15.17;100.00
37238;BME280;23129;49.662;8.448;2022-10-24T03:27:03;100161.84;;;15.11;100.00
37238;BME280;23129;49.662;8.448;2022-10-24T03:29:32;100162.94;;;15.06;100.00
37238;BME280;23129;49.662;8.448;2022-10-24T03:32:00;100166.66;;;15.02;100.00
37238;BME280;23129;49.662;8.448;2022-10-24T03:34:30;100166.03;;;14.97;100.00
37238;BME280;23129;49.662;8.448;2022-10-24T03:36:58;100173.28;;;14.94;100.00
37238;BME280;23129;49.662;8.448;2022-10-24T03:39:26;100175.97;;;14.92;100.00
37238;BME280;23129;49.662;8.448;2022-10-24T03:41:55;100170.84;;;14.89;100.00
37238;BME280;23129;49.662;8.448;2022-10-24T03:44:23;100169.16;;;14.88;100.00
37238;BME280;23129;49.662;8.448;2022-10-24T03:46:52;100168.28;;;14.88;100.00
37238;BME280;23129;49.662;8.448;2022-10-24T03:49:21;100162.16;;;14.87;100.00
37238;BME280;23129;49.662;8.448;2022-10-24T03:51:50;100162.16;;;14.87;100.00
37238;BME280;23129;49.662;8.448;2022-10-24T03:54:19;100176.22;;;14.88;100.00
37238;BME280;23129;49.662;8.448;2022-10-24T03:56:47;100165.72;;;14.86;100.00
37238;BME280;23129;49.662;8.448;2022-10-24T03:59:16;100171.00;;;14.86;100.00
37238;BME280;23129;49.662;8.448;2022-10-24T04:01:44;100164.00;;;14.85;100.00
37238;BME280;23129;49.662;8.448;2022-10-24T04:04:13;100162.31;;;14.84;100.00
37238;BME280;23129;49.662;8.448;2022-10-24T04:06:41;100172.09;;;14.82;100.00
37238;BME280;23129;49.662;8.448;2022-10-24T04:09:11;100175.69;;;14.81;100.00
37238;BME280;23129;49.662;8.448;2022-10-24T04:11:40;100174.03;;;14.78;100.00
37238;BME280;23129;49.662;8.448;2022-10-24T04:14:08;100162.63;;;14.78;100.00
37238;BME280;23129;49.662;8.448;2022-10-24T04:16:37;100167.03;;;14.77;100.00
37238;BME280;23129;49.662;8.448;2022-10-24T04:19:05;100173.34;;;14.75;100.00
37238;BME280;23129;49.662;8.448;2022-10-24T04:21:34;100166.34;;;14.74;100.00
37238;BME280;23129;49.662;8.448;2022-10-24T04:24:03;100157.66;;;14.72;100.00
37238;BME280;23129;49.662;8.448;2022-10-24T04:26:32;100159.50;;;14.70;100.00
37238;BME280;23129;49.662;8.448;2022-10-24T04:29:01;100159.56;;;14.68;100.00
37238;BME280;23129;49.662;8.448;2022-10-24T04:31:29;100156.22;;;14.65;100.00
37238;BME280;23129;49.662;8.448;2022-10-24T04:33:58;100163.44;;;14.61;100.00
37238;BME280;23129;49.662;8.448;2022-10-24T04:36:26;100175.94;;;14.57;100.00
37238;BME280;23129;49.662;8.448;2022-10-24T04:38:55;100175.16;;;14.55;100.00
37238;BME280;23129;49.662;8.448;2022-10-24T04:41:23;100156.69;;;14.55;100.00
37238;BME280;23129;49.662;8.448;2022-10-24T04:43:53;100157.38;;;14.59;100.00
37238;BME280;23129;49.662;8.448;2022-10-24T04:46:22;100155.38;;;14.64;100.00
37238;BME280;23129;49.662;8.448;2022-10-24T04:48:50;100156.72;;;14.73;100.00
37238;BME280;23129;49.662;8.448;2022-10-24T04:51:20;100157.03;;;14.84;100.00
37238;BME280;23129;49.662;8.448;2022-10-24T04:53:49;100164.41;;;14.95;100.00
37238;BME280;23129;49.662;8.448;2022-10-24T04:56:18;100162.94;;;15.06;100.00
37238;BME280;23129;49.662;8.448;2022-10-24T04:58:46;100155.31;;;15.18;100.00
37238;BME280;23129;49.662;8.448;2022-10-24T05:01:16;100156.47;;;15.29;100.00
37238;BME280;23129;49.662;8.448;2022-10-24T05:03:44;100151.66;;;15.38;100.00
37238;BME280;23129;49.662;8.448;2022-10-24T05:06:13;100149.44;;;15.46;100.00
37238;BME280;23129;49.662;8.448;2022-10-24T05:08:41;100146.56;;;15.50;100.00
37238;BME280;23129;49.662;8.448;2022-10-24T05:11:09;100151.69;;;15.53;100.00
37238;BME280;23129;49.662;8.448;2022-10-24T05:13:38;100167.38;;;15.57;100.00
37238;BME280;23129;49.662;8.448;2022-10-24T05:16:07;100170.81;;;15.59;100.00
37238;BME280;23129;49.662;8.448;2022-10-24T05:18:37;100165.53;;;15.59;100.00
37238;BME280;23129;49.662;8.448;2022-10-24T05:21:05;100176.84;;;15.61;100.00
37238;BME280;23129;49.662;8.448;2022-10-24T05:23:34;100169.75;;;15.61;100.00
37238;BME280;23129;49.662;8.448;2022-10-24T05:26:02;100173.44;;;15.59;100.00
37238;BME280;23129;49.662;8.448;2022-10-24T05:28:31;100177.94;;;15.57;100.00
37238;BME280;23129;49.662;8.448;2022-10-24T05:30:59;100177.28;;;15.53;100.00
37238;BME280;23129;49.662;8.448;2022-10-24T05:33:28;100180.97;;;15.49;100.00
37238;BME280;23129;49.662;8.448;2022-10-24T05:35:58;100189.88;;;15.48;100.00
37238;BME280;23129;49.662;8.448;2022-10-24T05:38:27;100191.66;;;15.47;100.00
37238;BME280;23129;49.662;8.448;2022-10-24T05:40:55;100189.16;;;15.44;100.00
37238;BME280;23129;49.662;8.448;2022-10-24T05:43:24;100201.59;;;15.42;100.00
37238;BME280;23129;49.662;8.448;2022-10-24T05:45:52;100182.31;;;15.40;100.00
37238;BME280;23129;49.662;8.448;2022-10-24T05:48:21;100190.09;;;15.43;100.00
37238;BME280;23129;49.662;8.448;2022-10-24T05:50:49;100184.47;;;15.49;100.00
37238;BME280;23129;49.662;8.448;2022-10-24T05:53:19;100187.69;;;15.56;100.00
37238;BME280;23129;49.662;8.448;2022-10-24T05:55:47;100192.47;;;15.65;100.00
37238;BME280;23129;49.662;8.448;2022-10-24T05:58:16;100200.97;;;15.72;100.00
37238;BME280;23129;49.662;8.448;2022-10-24T06:00:48;100207.72;;;15.78;100.00
37238;BME280;23129;49.662;8.448;2022-10-24T06:03:20;100209.25;;;15.82;100.00
37238;BME280;23129;49.662;8.448;2022-10-24T06:05:49;100216.13;;;15.86;100.00
37238;BME280;23129;49.662;8.448;2022-10-24T06:08:19;100212.53;;;15.87;100.00
37238;BME280;23129;49.662;8.448;2022-10-24T06:10:48;100214.16;;;15.89;100.00
37238;BME280;23129;49.662;8.448;2022-10-24T06:13:17;100217.56;;;15.91;100.00
37238;BME280;23129;49.662;8.448;2022-10-24T06:15:45;100210.38;;;15.93;100.00
37238;BME280;23129;49.662;8.448;2022-10-24T06:18:14;100219.91;;;15.97;100.00
37238;BME280;23129;49.662;8.448;2022-10-24T06:20:42;100221.50;;;16.00;100.00
37238;BME280;23129;49.662;8.448;2022-10-24T06:23:11;100220.31;;;16.06;100.00
37238;BME280;23129;49.662;8.448;2022-10-24T06:25:41;100228.06;;;16.09;100.00
37238;BME280;23129;49.662;8.448;2022-10-24T06:28:09;100229.63;;;16.13;100.00
37238;BME280;23129;49.662;8.448;2022-10-24T06:30:40;100220.59;;;16.17;100.00
37238;BME280;23129;49.662;8.448;2022-10-24T06:33:10;100224.00;;;16.19;100.00
37238;BME280;23129;49.662;8.448;2022-10-24T06:35:38;100225.72;;;16.20;100.00
37238;BME280;23129;49.662;8.448;2022-10-24T06:38:06;100231.69;;;16.24;100.00
37238;BME280;23129;49.662;8.448;2022-10-24T06:40:36;100235.97;;;16.26;100.00
37238;BME280;23129;49.662;8.448;2022-10-24T06:43:07;100234.84;;;16.30;100.00
37238;BME280;23129;49.662;8.448;2022-10-24T06:45:37;100233.81;;;16.33;100.00
37238;BME280;23129;49.662;8.448;2022-10-24T06:48:06;100238.88;;;16.37;100.00
37238;BME280;23129;49.662;8.448;2022-10-24T06:50:35;100241.34;;;16.40;100.00
37238;BME280;23129;49.662;8.448;2022-10-24T06:53:06;100239.31;;;16.46;100.00
37238;BME280;23129;49.662;8.448;2022-10-24T06:55:37;100233.69;;;16.52;100.00
37238;BME280;23129;49.662;8.448;2022-10-24T06:58:07;100250.84;;;16.60;100.00
37238;BME280;23129;49.662;8.448;2022-10-24T07:00:37;100251.34;;;16.67;100.00
37238;BME280;23129;49.662;8.448;2022-10-24T07:03:05;100257.97;;;16.76;100.00
37238;BME280;23129;49.662;8.448;2022-10-24T07:05:35;100253.06;;;16.84;100.00
37238;BME280;23129;49.662;8.448;2022-10-24T07:08:04;100253.59;;;16.91;100.00
37238;BME280;23129;49.662;8.448;2022-10-24T07:10:33;100243.47;;;16.97;100.00
37238;BME280;23129;49.662;8.448;2022-10-24T07:13:01;100241.25;;;17.05;100.00
37238;BME280;23129;49.662;8.448;2022-10-24T07:15:31;100247.03;;;17.12;100.00
37238;BME280;23129;49.662;8.448;2022-10-24T07:18:00;100233.44;;;17.18;100.00
37238;BME280;23129;49.662;8.448;2022-10-24T07:20:28;100234.88;;;17.24;100.00
37238;BME280;23129;49.662;8.448;2022-10-24T07:22:56;100246.13;;;17.27;100.00
37238;BME280;23129;49.662;8.448;2022-10-24T07:25:25;100247.66;;;17.31;100.00
37238;BME280;23129;49.662;8.448;2022-10-24T07:27:53;100258.25;;;17.31;100.00
37238;BME280;23129;49.662;8.448;2022-10-24T07:30:22;100256.50;;;17.32;100.00
37238;BME280;23129;49.662;8.448;2022-10-24T07:32:51;100268.78;;;17.33;100.00
37238;BME280;23129;49.662;8.448;2022-10-24T07:35:22;100263.56;;;17.31;100.00
37238;BME280;23129;49.662;8.448;2022-10-24T07:37:50;100270.59;;;17.32;100.00
37238;BME280;23129;49.662;8.448;2022-10-24T07:40:19;100267.94;;;17.32;100.00
37238;BME280;23129;49.662;8.448;2022-10-24T07:42:48;100267.94;;;17.32;100.00
37238;BME280;23129;49.662;8.448;2022-10-24T07:45:17;100268.69;;;17.34;100.00
37238;BME280;23129;49.662;8.448;2022-10-24T07:47:45;100274.75;;;17.37;100.00
37238;BME280;23129;49.662;8.448;2022-10-24T07:50:15;100284.41;;;17.38;100.00
37238;BME280;23129;49.662;8.448;2022-10-24T07:52:44;100277.22;;;17.40;100.00
37238;BME280;23129;49.662;8.448;2022-10-24T07:55:12;100277.03;;;17.43;100.00
37238;BME280;23129;49.662;8.448;2022-10-24T07:57:40;100262.84;;;17.44;100.00
37238;BME280;23129;49.662;8.448;2022-10-24T08:00:11;100258.22;;;17.47;100.00
37238;BME280;23129;49.662;8.448;2022-10-24T08:02:39;100252.81;;;17.49;100.00
37238;BME280;23129;49.662;8.448;2022-10-24T08:05:09;100246.56;;;17.50;100.00
37238;BME280;23129;49.662;8.448;2022-10-24T08:07:39;100248.16;;;17.52;100.00
37238;BME280;23129;49.662;8.448;2022-10-24T08:10:11;100255.09;;;17.55;100.00
37238;BME280;23129;49.662;8.448;2022-10-24T08:12:40;100257.38;;;17.61;100.00
37238;BME280;23129;49.662;8.448;2022-10-24T08:15:10;100262.44;;;17.66;100.00
37238;BME280;23129;49.662;8.448;2022-10-24T08:17:39;100252.47;;;17.69;100.00
37238;BME280;23129;49.662;8.448;2022-10-24T08:20:09;100252.47;;;17.69;100.00
37238;BME280;23129;49.662;8.448;2022-10-24T08:22:39;100250.78;;;17.68;100.00
37238;BME280;23129;49.662;8.448;2022-10-24T08:25:08;100243.66;;;17.69;100.00
37238;BME280;23129;49.662;8.448;2022-10-24T08:27:37;100235.53;;;17.72;100.00
37238;BME280;23129;49.662;8.448;2022-10-24T08:30:07;100246.78;;;17.75;100.00
37238;BME280;23129;49.662;8.448;2022-10-24T08:32:36;100231.91;;;17.73;100.00
37238;BME280;23129;49.662;8.448;2022-10-24T08:35:06;100250.59;;;17.71;100.00
37238;BME280;23129;49.662;8.448;2022-10-24T08:37:35;100263.94;;;17.70;100.00
37238;BME280;23129;49.662;8.448;2022-10-24T08:40:15;100248.22;;;17.67;100.00
37238;BME280;23129;49.662;8.448;2022-10-24T08:42:45;100252.66;;;17.66;100.00
37238;BME280;23129;49.662;8.448;2022-10-24T08:45:21;100239.28;;;17.68;100.00
37238;BME280;23129;49.662;8.448;2022-10-24T08:47:59;100248.88;;;17.70;100.00
37238;BME280;23129;49.662;8.448;2022-10-24T08:50:34;100252.22;;;17.74;100.00
37238;BME280;23129;49.662;8.448;2022-10-24T08:53:07;100257.31;;;17.77;100.00
37238;BME280;23129;49.662;8.448;2022-10-24T08:55:42;100254.53;;;17.80;100.00
37238;BME280;23129;49.662;8.448;2022-10-24T08:58:20;100260.50;;;17.84;100.00
37238;BME280;23129;49.662;8.448;2022-10-24T09:00:52;100254.81;;;17.90;100.00
37238;BME280;23129;49.662;8.448;2022-10-24T09:03:27;100252.72;;;17.95;100.00
37238;BME280;23129;49.662;8.448;2022-10-24T09:06:20;100242.59;;;18.01;100.00
37238;BME280;23129;49.662;8.448;2022-10-24T09:08:51;100229.00;;;18.06;100.00
37238;BME280;23129;49.662;8.448;2022-10-24T09:11:29;100238.97;;;18.31;100.00
37238;BME280;23129;49.662;8.448;2022-10-24T09:14:01;100217.88;;;18.69;100.00
37238;BME280;23129;49.662;8.448;2022-10-24T09:16:30;100228.22;;;19.01;100.00
37238;BME280;23129;49.662;8.448;2022-10-24T09:18:58;100234.47;;;19.40;100.00
37238;BME280;23129;49.662;8.448;2022-10-24T09:21:27;100237.28;;;19.77;100.00
37238;BME280;23129;49.662;8.448;2022-10-24T09:23:56;100224.94;;;20.14;100.00
37238;BME280;23129;49.662;8.448;2022-10-24T09:26:29;100234.75;;;20.50;100.00
37238;BME280;23129;49.662;8.448;2022-10-24T09:28:59;100243.94;;;20.83;100.00
37238;BME280;23129;49.662;8.448;2022-10-24T09:31:27;100237.59;;;21.08;100.00
37238;BME280;23129;49.662;8.448;2022-10-24T09:33:56;100234.53;;;21.26;100.00
37238;BME280;23129;49.662;8.448;2022-10-24T09:36:29;100249.53;;;21.51;100.00
37238;BME280;23129;49.662;8.448;2022-10-24T09:39:26;100246.34;;;21.81;100.00
37238;BME280;23129;49.662;8.448;2022-10-24T09:41:56;100249.97;;;22.14;100.00
37238;BME280;23129;49.662;8.448;2022-10-24T09:44:33;100239.66;;;22.43;100.00
37238;BME280;23129;49.662;8.448;2022-10-24T09:47:06;100248.91;;;22.50;100.00
37238;BME280;23129;49.662;8.448;2022-10-24T09:49:47;100260.28;;;22.52;100.00
37238;BME280;23129;49.662;8.448;2022-10-24T09:52:19;100270.97;;;22.63;100.00
37238;BME280;23129;49.662;8.448;2022-10-24T09:55:09;100267.75;;;22.92;100.00
37238;BME280;23129;49.662;8.448;2022-10-24T09:57:44;100271.09;;;23.16;100.00
37238;BME280;23129;49.662;8.448;2022-10-24T10:00:23;100271.19;;;23.47;100.00
37238;BME280;23129;49.662;8.448;2022-10-24T10:03:02;100276.22;;;23.61;100.00
37238;BME280;23129;49.662;8.448;2022-10-24T10:05:45;100279.72;;;23.73;100.00
37238;BME280;23129;49.662;8.448;2022-10-24T10:08:19;100279.31;;;23.78;100.00
37238;BME280;23129;49.662;8.448;2022-10-24T10:11:04;100285.38;;;23.80;100.00
37238;BME280;23129;49.662;8.448;2022-10-24T10:13:42;100268.84;;;23.75;100.00
37238;BME280;23129;49.662;8.448;2022-10-24T10:16:23;100291.03;;;23.65;100.00
37238;BME280;23129;49.662;8.448;2022-10-24T10:19:01;100294.97;;;23.61;100.00
37238;BME280;23129;49.662;8.448;2022-10-24T10:21:54;100293.59;;;23.67;100.00
37238;BME280;23129;49.662;8.448;2022-10-24T10:24:26;100289.84;;;23.69;100.00
37238;BME280;23129;49.662;8.448;2022-10-24T10:26:55;100284.38;;;23.39;100.00
37238;BME280;23129;49.662;8.448;2022-10-24T10:29:25;100287.38;;;23.24;100.00
37238;BME280;23129;49.662;8.448;2022-10-24T10:32:05;100303.88;;;23.30;100.00
37238;BME280;23129;49.662;8.448;2022-10-24T10:34:38;100294.28;;;23.48;100.00
37238;BME280;23129;49.662;8.448;2022-10-24T10:37:31;100284.25;;;23.61;100.00
37238;BME280;23129;49.662;8.448;2022-10-24T10:40:18;100283.25;;;23.74;100.00
37238;BME280;23129;49.662;8.448;2022-10-24T10:43:04;100277.63;;;23.77;100.00
37238;BME280;23129;49.662;8.448;2022-10-24T10:45:45;100277.34;;;23.80;100.00
37238;BME280;23129;49.662;8.448;2022-10-24T10:48:32;100269.50;;;23.88;100.00
37238;BME280;23129;49.662;8.448;2022-10-24T10:51:13;100282.56;;;24.02;100.00
37238;BME280;23129;49.662;8.448;2022-10-24T10:53:54;100265.41;;;24.14;100.00
37238;BME280;23129;49.662;8.448;2022-10-24T10:56:36;100264.34;;;24.27;100.00
37238;BME280;23129;49.662;8.448;2022-10-24T10:59:23;100274.44;;;24.44;100.00
37238;BME280;23129;49.662;8.448;2022-10-24T11:02:02;100268.97;;;24.55;100.00
37238;BME280;23129;49.662;8.448;2022-10-24T11:04:45;100268.13;;;24.55;99.01
37238;BME280;23129;49.662;8.448;2022-10-24T11:07:22;100272.53;;;24.66;99.55
37238;BME280;23129;49.662;8.448;2022-10-24T11:09:55;100267.00;;;24.57;94.17
37238;BME280;23129;49.662;8.448;2022-10-24T11:12:28;100267.53;;;24.51;93.84
37238;BME280;23129;49.662;8.448;2022-10-24T11:15:05;100270.91;;;24.44;95.96
37238;BME280;23129;49.662;8.448;2022-10-24T11:17:40;100261.88;;;24.45;97.18
37238;BME280;23129;49.662;8.448;2022-10-24T11:20:18;100278.34;;;24.40;96.89
37238;BME280;23129;49.662;8.448;2022-10-24T11:22:52;100285.50;;;24.30;95.76
37238;BME280;23129;49.662;8.448;2022-10-24T11:25:26;100286.38;;;24.40;97.55
37238;BME280;23129;49.662;8.448;2022-10-24T11:28:05;100275.13;;;24.46;94.77
37238;BME280;23129;49.662;8.448;2022-10-24T11:30:42;100255.53;;;24.46;94.58
37238;BME280;23129;49.662;8.448;2022-10-24T11:33:19;100283.84;;;24.38;95.01
37238;BME280;23129;49.662;8.448;2022-10-24T11:36:09;100281.16;;;24.08;90.96
37238;BME280;23129;49.662;8.448;2022-10-24T11:38:47;100275.56;;;23.69;92.47
37238;BME280;23129;49.662;8.448;2022-10-24T11:41:39;100281.63;;;23.29;94.41
37238;BME280;23129;49.662;8.448;2022-10-24T11:44:29;100272.81;;;23.06;96.08
37238;BME280;23129;49.662;8.448;2022-10-24T11:47:32;100292.50;;;23.16;97.60
37238;BME280;23129;49.662;8.448;2022-10-24T11:50:13;100261.31;;;23.27;98.52
37238;BME280;23129;49.662;8.448;2022-10-24T11:52:53;100269.44;;;23.36;97.92
37238;BME280;23129;49.662;8.448;2022-10-24T11:55:25;100273.84;;;23.26;96.27
37238;BME280;23129;49.662;8.448;2022-10-24T11:57:58;100274.38;;;23.20;96.50
37238;BME280;23129;49.662;8.448;2022-10-24T12:00:30;100266.03;;;23.02;96.67
37238;BME280;23129;49.662;8.448;2022-10-24T12:03:23;100270.44;;;22.92;94.95
37238;BME280;23129;49.662;8.448;2022-10-24T12:06:42;100265.00;;;23.14;98.14
37238;BME280;23129;49.662;8.448;2022-10-24T12:09:43;100254.75;;;23.31;97.32
37238;BME280;23129;49.662;8.448;2022-10-24T12:12:47;100251.41;;;23.06;96.99
37238;BME280;23129;49.662;8.448;2022-10-24T12:15:40;100240.78;;;22.84;97.55
37238;BME280;23129;49.662;8.448;2022-10-24T12:18:27;100251.03;;;22.67;98.76
37238;BME280;23129;49.662;8.448;2022-10-24T12:21:00;100245.22;;;22.62;96.53
37238;BME280;23129;49.662;8.448;2022-10-24T12:23:31;100242.63;;;22.72;96.56
37238;BME280;23129;49.662;8.448;2022-10-24T12:26:05;100245.41;;;22.82;98.26
37238;BME280;23129;49.662;8.448;2022-10-24T12:28:34;100245.38;;;22.93;97.67
37238;BME280;23129;49.662;8.448;2022-10-24T12:31:10;100258.19;;;23.21;96.02
37238;BME280;23129;49.662;8.448;2022-10-24T12:37:35;100235.38;;;23.69;97.75
37238;BME280;23129;49.662;8.448;2022-10-24T12:40:52;100248.16;;;24.07;97.79
37238;BME280;23129;49.662;8.448;2022-10-24T12:43:31;100237.56;;;24.36;93.60
37238;BME280;23129;49.662;8.448;2022-10-24T12:46:01;100228.88;;;24.44;93.07
37238;BME280;23129;49.662;8.448;2022-10-24T12:49:19;100252.88;;;24.55;92.20
37238;BME280;23129;49.662;8.448;2022-10-24T12:51:53;100242.91;;;24.77;92.24
37238;BME280;23129;49.662;8.448;2022-10-24T12:54:40;100220.16;;;24.71;90.08
37238;BME280;23129;49.662;8.448;2022-10-24T12:57:24;100213.81;;;24.82;91.86
37238;BME280;23129;49.662;8.448;2022-10-24T12:59:56;100227.22;;;24.92;90.05
37238;BME280;23129;49.662;8.448;2022-10-24T13:02:49;100214.53;;;24.84;86.83
37238;BME280;23129;49.662;8.448;2022-10-24T13:05:47;100223.13;;;24.78;88.32
37238;BME280;23129;49.662;8.448;2022-10-24T13:08:34;100213.69;;;24.83;89.75
37238;BME280;23129;49.662;8.448;2022-10-24T13:11:30;100219.03;;;24.93;89.31
37238;BME280;23129;49.662;8.448;2022-10-24T13:14:56;100220.44;;;24.78;92.17
37238;BME280;23129;49.662;8.448;2022-10-24T13:17:37;100221.84;;;24.63;89.15
37238;BME280;23129;49.662;8.448;2022-10-24T13:20:18;100218.66;;;24.38;90.60